createdAt,value
2017-08-20T00:02:12.602Z,68.50
2017-08-20T00:04:39.081Z,68.50
2017-08-20T00:07:05.552Z,68.70
2017-08-20T00:09:32.031Z,68.60
2017-08-20T00:11:58.473Z,69.30
2017-08-20T00:14:24.951Z,69.70
2017-08-20T00:16:52.125Z,68.90
2017-08-20T00:19:18.643Z,68.90
2017-08-20T00:21:45.148Z,69.00
2017-08-20T00:24:12.320Z,69.10
2017-08-20T00:26:38.789Z,68.90
2017-08-20T00:29:05.249Z,68.60
2017-08-20T00:31:31.718Z,68.30
2017-08-20T00:33:58.222Z,68.30
2017-08-20T00:36:24.709Z,68.40
2017-08-20T00:38:51.208Z,68.70
2017-08-20T00:41:18.553Z,68.90
2017-08-20T00:43:45.022Z,68.70
2017-08-20T00:46:11.505Z,68.60
2017-08-20T00:48:38.102Z,69.50
2017-08-20T00:51:04.563Z,69.90
2017-08-20T00:53:31.042Z,70.20
2017-08-20T00:55:57.509Z,71.00
2017-08-20T00:58:24.046Z,69.70
2017-08-20T01:00:50.701Z,69.30
2017-08-20T01:03:17.241Z,69.70
2017-08-20T01:05:44.236Z,69.20
2017-08-20T01:08:10.685Z,68.30
2017-08-20T01:10:37.176Z,67.90
2017-08-20T01:13:04.345Z,67.60
2017-08-20T01:15:30.833Z,67.50
2017-08-20T01:17:58.033Z,69.70
2017-08-20T01:20:24.485Z,69.60
2017-08-20T01:22:51.197Z,69.50
2017-08-20T01:25:17.634Z,70.00
2017-08-20T01:27:44.123Z,70.30
2017-08-20T01:30:10.652Z,69.90
2017-08-20T01:32:37.480Z,69.50
2017-08-20T01:35:03.922Z,69.90
2017-08-20T01:37:30.400Z,69.90
2017-08-20T01:39:56.873Z,69.30
2017-08-20T01:42:23.298Z,69.10
2017-08-20T01:44:49.745Z,68.60
2017-08-20T01:47:16.190Z,68.40
2017-08-20T01:49:42.668Z,68.50
2017-08-20T01:52:09.115Z,68.90
2017-08-20T01:54:35.613Z,68.90
2017-08-20T01:57:02.045Z,69.50
2017-08-20T01:59:28.529Z,69.80
2017-08-20T02:01:55.053Z,70.80
2017-08-20T02:04:21.530Z,70.70
2017-08-20T02:06:48.042Z,70.60
2017-08-20T02:09:14.521Z,70.80
2017-08-20T02:11:41.719Z,70.30
2017-08-20T02:14:08.267Z,70.30
2017-08-20T02:16:34.768Z,71.20
2017-08-20T02:19:01.189Z,71.20
2017-08-20T02:21:27.656Z,70.70
2017-08-20T02:23:54.073Z,70.50
2017-08-20T02:26:20.505Z,70.50
2017-08-20T02:28:46.948Z,70.90
2017-08-20T02:31:13.369Z,71.60
2017-08-20T02:33:39.837Z,71.60
2017-08-20T02:36:06.269Z,72.10
2017-08-20T02:38:32.703Z,72.00
2017-08-20T02:40:59.155Z,71.60
2017-08-20T02:43:25.592Z,71.30
2017-08-20T02:45:52.075Z,70.70
2017-08-20T02:48:18.582Z,69.90
2017-08-20T02:50:45.021Z,70.30
2017-08-20T02:53:11.528Z,69.90
2017-08-20T02:55:37.956Z,69.70
2017-08-20T02:58:04.427Z,70.10
2017-08-20T03:00:30.901Z,70.20
2017-08-20T03:02:57.410Z,70.90
2017-08-20T03:05:23.855Z,71.90
2017-08-20T03:07:50.306Z,71.80
2017-08-20T03:10:16.749Z,71.70
2017-08-20T03:12:43.196Z,71.10
2017-08-20T03:15:09.698Z,71.10
2017-08-20T03:17:36.245Z,71.20
2017-08-20T03:20:02.753Z,71.50
2017-08-20T03:22:29.185Z,71.00
2017-08-20T03:24:55.705Z,72.00
2017-08-20T03:27:22.137Z,72.60
2017-08-20T03:29:49.377Z,73.50
2017-08-20T03:32:15.854Z,73.50
2017-08-20T03:34:42.423Z,73.60
2017-08-20T03:37:09.612Z,73.30
2017-08-20T03:39:36.062Z,73.00
2017-08-20T03:42:02.550Z,73.00
2017-08-20T03:44:29.723Z,72.80
2017-08-20T03:46:56.232Z,72.80
2017-08-20T03:49:22.732Z,72.30
2017-08-20T03:51:49.238Z,72.80
2017-08-20T03:54:15.719Z,73.10
2017-08-20T03:56:42.971Z,72.40
2017-08-20T03:59:09.428Z,72.40
2017-08-20T04:01:35.909Z,71.80
2017-08-20T04:04:02.342Z,71.60
2017-08-20T04:06:28.829Z,70.60
2017-08-20T04:08:55.270Z,71.10
2017-08-20T04:11:21.688Z,71.80
2017-08-20T04:13:48.885Z,71.80
2017-08-20T04:16:15.316Z,71.80
2017-08-20T04:18:41.749Z,71.80
2017-08-20T04:21:08.224Z,71.80
2017-08-20T04:23:34.685Z,73.00
2017-08-20T04:26:01.249Z,73.60
2017-08-20T04:28:27.680Z,73.50
2017-08-20T04:30:54.097Z,73.90
2017-08-20T04:33:20.652Z,74.00
2017-08-20T04:35:47.149Z,74.20
2017-08-20T04:38:13.589Z,74.50
2017-08-20T04:40:40.071Z,73.90
2017-08-20T04:43:06.526Z,73.50
2017-08-20T04:45:32.970Z,73.10
2017-08-20T04:48:00.185Z,72.20
2017-08-20T04:50:26.666Z,72.20
2017-08-20T04:52:53.137Z,72.00
2017-08-20T04:55:19.629Z,71.70
2017-08-20T04:57:46.064Z,72.30
2017-08-20T05:00:12.528Z,73.60
2017-08-20T05:02:39.026Z,73.50
2017-08-20T05:05:05.473Z,73.60
2017-08-20T05:07:31.913Z,72.70
2017-08-20T05:09:58.477Z,72.20
2017-08-20T05:12:24.919Z,71.70
2017-08-20T05:14:51.372Z,71.80
2017-08-20T05:17:17.793Z,71.70
2017-08-20T05:19:44.273Z,70.20
2017-08-20T05:22:10.777Z,69.00
2017-08-20T05:24:37.261Z,68.40
2017-08-20T05:27:03.690Z,70.70
2017-08-20T05:29:30.303Z,70.90
2017-08-20T05:31:56.841Z,71.70
2017-08-20T05:34:23.305Z,70.60
2017-08-20T05:36:50.354Z,69.80
2017-08-20T05:39:16.875Z,69.50
2017-08-20T05:41:43.298Z,69.50
2017-08-20T05:44:09.729Z,69.20
2017-08-20T05:46:36.190Z,69.00
2017-08-20T05:49:02.657Z,69.00
2017-08-20T05:51:29.153Z,69.30
2017-08-20T05:53:55.612Z,69.20
2017-08-20T05:56:22.797Z,69.70
2017-08-20T05:58:49.261Z,69.60
2017-08-20T06:01:15.715Z,69.40
2017-08-20T06:03:42.189Z,70.10
2017-08-20T06:06:09.387Z,68.00
2017-08-20T06:08:35.877Z,67.90
2017-08-20T06:11:02.374Z,65.80
2017-08-20T06:13:28.889Z,66.70
2017-08-20T06:15:55.351Z,65.90
2017-08-20T06:18:21.795Z,64.30
2017-08-20T06:20:49.005Z,65.80
2017-08-20T06:23:15.438Z,65.70
2017-08-20T06:25:41.905Z,65.10
2017-08-20T06:28:08.336Z,64.90
2017-08-20T06:30:34.852Z,65.20
2017-08-20T06:33:02.063Z,65.50
2017-08-20T06:35:28.521Z,65.50
2017-08-20T06:37:54.982Z,65.70
2017-08-20T06:40:21.437Z,65.00
2017-08-20T06:42:47.942Z,65.50
2017-08-20T06:45:14.411Z,64.80
2017-08-20T06:47:41.611Z,64.30
2017-08-20T06:50:08.069Z,64.30
2017-08-20T06:52:34.569Z,63.40
2017-08-20T06:55:01.057Z,62.80
2017-08-20T06:57:27.544Z,60.50
2017-08-20T06:59:53.986Z,59.60
2017-08-20T07:02:20.561Z,58.10
2017-08-20T07:04:47.001Z,57.00
2017-08-20T07:07:13.437Z,55.50
2017-08-20T07:09:40.591Z,56.20
2017-08-20T07:12:07.050Z,54.70
2017-08-20T07:14:33.494Z,53.80
2017-08-20T07:17:00.162Z,53.20
2017-08-20T07:19:26.795Z,52.50
2017-08-20T07:21:53.271Z,52.90
2017-08-20T07:24:19.836Z,51.30
2017-08-20T07:26:46.290Z,50.10
2017-08-20T07:29:12.797Z,48.70
2017-08-20T07:31:39.237Z,49.30
2017-08-20T07:34:05.716Z,48.30
2017-08-20T07:36:32.230Z,47.40
2017-08-20T07:38:59.493Z,48.00
2017-08-20T07:41:26.778Z,47.70
2017-08-20T07:43:53.285Z,47.70
2017-08-20T07:46:20.629Z,45.60
2017-08-20T07:48:47.110Z,45.50
2017-08-20T07:51:13.577Z,44.40
2017-08-20T07:53:40.047Z,45.10
2017-08-20T07:56:06.585Z,44.50
2017-08-20T07:58:33.093Z,43.60
2017-08-20T08:00:59.650Z,43.90
2017-08-20T08:03:26.845Z,41.50
2017-08-20T08:05:53.280Z,41.50
2017-08-20T08:08:20.126Z,41.80
2017-08-20T08:10:46.801Z,41.30
2017-08-20T08:13:13.991Z,39.50
2017-08-20T08:15:40.410Z,38.90
2017-08-20T08:18:06.928Z,38.30
2017-08-20T08:20:33.373Z,37.10
2017-08-20T08:22:59.856Z,36.40
2017-08-20T08:25:26.313Z,37.00
2017-08-20T08:27:53.542Z,34.80
2017-08-20T08:30:20.050Z,34.90
2017-08-20T08:32:46.500Z,34.60
2017-08-20T08:35:12.968Z,35.10
2017-08-20T08:37:39.438Z,34.30
2017-08-20T08:40:05.874Z,34.80
2017-08-20T08:42:32.340Z,34.90
2017-08-20T08:44:58.870Z,34.00
2017-08-20T08:47:25.353Z,33.80
2017-08-20T08:49:51.800Z,34.40
2017-08-20T08:52:18.266Z,33.40
2017-08-20T08:54:44.806Z,33.60
2017-08-20T08:57:11.245Z,33.50
2017-08-20T08:59:37.689Z,32.30
2017-08-20T09:02:04.192Z,31.30
2017-08-20T09:04:30.701Z,31.60
2017-08-20T09:06:57.238Z,32.00
2017-08-20T09:09:23.718Z,31.60
2017-08-20T09:11:50.170Z,31.20
2017-08-20T09:14:16.606Z,31.50
2017-08-20T09:16:43.158Z,30.20
2017-08-20T09:19:09.612Z,30.30
2017-08-20T09:21:36.146Z,30.70
2017-08-20T09:24:02.656Z,30.80
2017-08-20T09:26:29.133Z,30.50
2017-08-20T09:28:55.591Z,29.90
2017-08-20T09:31:22.065Z,29.10
2017-08-20T09:33:49.319Z,29.20
2017-08-20T09:36:15.754Z,29.20
2017-08-20T09:38:42.282Z,29.90
2017-08-20T09:41:08.872Z,29.70
2017-08-20T09:43:35.318Z,30.20
2017-08-20T09:46:01.766Z,29.30
2017-08-20T09:48:28.296Z,28.70
2017-08-20T09:50:54.790Z,28.80
2017-08-20T09:53:21.265Z,29.10
2017-08-20T09:55:47.747Z,29.30
2017-08-20T09:58:14.187Z,31.00
2017-08-20T10:00:40.805Z,30.60
2017-08-20T10:03:07.299Z,29.70
2017-08-20T10:05:33.787Z,30.00
2017-08-20T10:08:00.331Z,30.70
2017-08-20T10:10:26.773Z,29.70
2017-08-20T10:12:53.233Z,29.30
2017-08-20T10:15:19.666Z,30.00
2017-08-20T10:17:46.120Z,29.60
2017-08-20T10:20:12.649Z,29.40
2017-08-20T10:22:39.089Z,28.90
2017-08-20T10:25:05.583Z,29.00
2017-08-20T10:27:32.072Z,29.00
2017-08-20T10:29:58.542Z,29.10
2017-08-20T10:32:25.777Z,29.90
2017-08-20T10:34:52.204Z,29.80
2017-08-20T10:37:18.772Z,31.00
2017-08-20T10:39:45.246Z,31.40
2017-08-20T10:42:12.585Z,31.60
2017-08-20T10:44:39.053Z,31.30
2017-08-20T10:47:05.490Z,30.30
2017-08-20T10:49:31.997Z,30.00
2017-08-20T10:51:58.461Z,31.40
2017-08-20T10:54:24.957Z,31.50
2017-08-20T10:56:51.406Z,31.60
2017-08-20T10:59:17.854Z,32.20
2017-08-20T11:01:44.463Z,31.70
2017-08-20T11:04:10.990Z,31.30
2017-08-20T11:06:37.421Z,32.10
2017-08-20T11:09:04.990Z,30.60
2017-08-20T11:11:31.478Z,31.00
2017-08-20T11:13:57.924Z,31.90
2017-08-20T11:16:24.486Z,31.50
2017-08-20T11:18:50.965Z,31.40
2017-08-20T11:21:17.456Z,31.80
2017-08-20T11:23:43.913Z,32.30
2017-08-20T11:26:10.460Z,31.90
2017-08-20T11:28:36.929Z,31.20
2017-08-20T11:31:03.394Z,32.40
2017-08-20T11:33:29.905Z,31.90
2017-08-20T11:35:57.098Z,33.00
2017-08-20T11:38:23.554Z,33.00
2017-08-20T11:40:50.082Z,32.60
2017-08-20T11:43:16.613Z,33.30
2017-08-20T11:45:43.053Z,32.60
2017-08-20T11:48:09.530Z,32.40
2017-08-20T11:50:36.016Z,33.20
2017-08-20T11:53:03.265Z,32.20
2017-08-20T11:55:29.749Z,32.30
2017-08-20T11:57:56.249Z,33.80
2017-08-20T12:00:22.808Z,34.30
2017-08-20T12:02:49.289Z,34.50
2017-08-20T12:05:15.739Z,33.50
2017-08-20T12:07:42.201Z,33.20
2017-08-20T12:10:08.727Z,34.80
2017-08-20T12:12:36.005Z,33.70
2017-08-20T12:15:02.487Z,33.60
2017-08-20T12:17:28.944Z,33.60
2017-08-20T12:19:55.421Z,34.80
2017-08-20T12:22:21.853Z,33.80
2017-08-20T12:24:48.352Z,32.40
2017-08-20T12:27:14.822Z,33.80
2017-08-20T12:29:41.310Z,34.40
2017-08-20T12:32:07.780Z,33.90
2017-08-20T12:34:34.205Z,34.90
2017-08-20T12:37:00.757Z,34.70
2017-08-20T12:39:27.286Z,34.10
2017-08-20T12:41:53.842Z,34.80
2017-08-20T12:44:20.322Z,34.40
2017-08-20T12:46:47.423Z,34.50
2017-08-20T12:49:14.732Z,34.80
2017-08-20T12:51:41.963Z,34.30
2017-08-20T12:54:08.446Z,34.30
2017-08-20T12:56:35.372Z,34.90
2017-08-20T12:59:01.879Z,35.30
2017-08-20T13:01:28.314Z,34.70
2017-08-20T13:03:54.837Z,34.80
2017-08-20T13:06:21.317Z,35.20
2017-08-20T13:08:47.830Z,35.10
2017-08-20T13:11:14.313Z,34.80
2017-08-20T13:13:40.750Z,34.90
2017-08-20T13:16:07.269Z,34.40
2017-08-20T13:18:33.716Z,34.20
2017-08-20T13:21:00.133Z,33.90
2017-08-20T13:23:26.686Z,34.50
2017-08-20T13:25:53.180Z,35.50
2017-08-20T13:28:19.685Z,35.30
2017-08-20T13:30:46.188Z,35.00
2017-08-20T13:33:12.737Z,34.70
2017-08-20T13:35:39.194Z,34.30
2017-08-20T13:38:06.449Z,35.20
2017-08-20T13:40:32.902Z,35.00
2017-08-20T13:42:59.358Z,34.50
2017-08-20T13:45:25.869Z,34.80
2017-08-20T13:47:52.350Z,34.30
2017-08-20T13:50:18.822Z,35.00
2017-08-20T13:52:45.326Z,35.00
2017-08-20T13:55:11.854Z,35.30
2017-08-20T13:57:38.350Z,34.80
2017-08-20T14:00:04.961Z,35.00
2017-08-20T14:02:31.436Z,35.00
2017-08-20T14:04:57.893Z,36.10
2017-08-20T14:07:24.437Z,34.60
2017-08-20T14:09:50.890Z,35.30
2017-08-20T14:12:17.337Z,35.80
2017-08-20T14:14:43.870Z,34.30
2017-08-20T14:17:11.042Z,33.90
2017-08-20T14:19:37.503Z,33.80
2017-08-20T14:22:03.985Z,34.60
2017-08-20T14:24:30.550Z,33.80
2017-08-20T14:26:57.093Z,35.20
2017-08-20T14:29:23.566Z,34.00
2017-08-20T14:31:50.085Z,34.90
2017-08-20T14:34:16.673Z,34.30
2017-08-20T14:36:43.132Z,33.70
2017-08-20T14:39:09.590Z,34.80
2017-08-20T14:41:36.073Z,33.90
2017-08-20T14:44:02.609Z,33.60
2017-08-20T14:46:29.100Z,34.90
2017-08-20T14:48:55.581Z,36.60
2017-08-20T14:51:22.168Z,35.10
2017-08-20T14:53:48.621Z,35.20
2017-08-20T14:56:15.809Z,34.00
2017-08-20T14:58:42.365Z,34.00
2017-08-20T15:01:08.830Z,34.40
2017-08-20T15:03:36.054Z,35.50
2017-08-20T15:06:02.574Z,35.50
2017-08-20T15:08:29.092Z,34.50
2017-08-20T15:10:55.540Z,34.60
2017-08-20T15:13:22.010Z,33.20
2017-08-20T15:15:48.507Z,32.20
2017-08-20T15:18:15.057Z,34.00
2017-08-20T15:20:41.513Z,35.90
2017-08-20T15:23:08.010Z,36.40
2017-08-20T15:25:34.529Z,36.30
2017-08-20T15:28:01.005Z,37.30
2017-08-20T15:30:27.482Z,37.70
2017-08-20T15:32:54.024Z,37.80
2017-08-20T15:35:20.460Z,37.80
2017-08-20T15:37:46.909Z,38.70
2017-08-20T15:40:13.379Z,39.70
2017-08-20T15:42:39.895Z,38.60
2017-08-20T15:45:06.433Z,38.70
2017-08-20T15:47:32.898Z,39.60
2017-08-20T15:50:00.130Z,40.30
2017-08-20T15:52:26.688Z,40.20
2017-08-20T15:54:53.895Z,40.00
2017-08-20T15:57:20.423Z,40.00
2017-08-20T15:59:47.014Z,40.50
2017-08-20T16:02:14.195Z,41.10
2017-08-20T16:04:40.646Z,41.10
2017-08-20T16:07:07.121Z,41.90
2017-08-20T16:09:33.580Z,41.70
2017-08-20T16:12:00.031Z,41.80
2017-08-20T16:14:26.541Z,41.00
2017-08-20T16:16:53.034Z,40.30
2017-08-20T16:19:19.491Z,40.70
2017-08-20T16:21:45.955Z,40.50
2017-08-20T16:24:12.442Z,41.00
2017-08-20T16:26:39.652Z,42.20
2017-08-20T16:29:06.157Z,41.60
2017-08-20T16:31:33.375Z,41.70
2017-08-20T16:33:59.836Z,41.60
2017-08-20T16:36:26.354Z,41.40
2017-08-20T16:38:52.826Z,42.00
2017-08-20T16:41:19.296Z,42.20
2017-08-20T16:43:45.743Z,41.60
2017-08-20T16:46:12.205Z,41.80
2017-08-20T16:48:38.702Z,41.20
2017-08-20T16:51:05.174Z,40.20
2017-08-20T16:53:31.674Z,41.00
2017-08-20T16:55:58.161Z,41.00
2017-08-20T16:58:24.616Z,41.40
2017-08-20T17:00:51.230Z,41.80
2017-08-20T17:03:17.665Z,41.80
2017-08-20T17:05:44.278Z,42.10
2017-08-20T17:08:10.781Z,42.70
2017-08-20T17:10:37.324Z,42.40
2017-08-20T17:13:03.810Z,43.00
2017-08-20T17:15:31.069Z,43.20
2017-08-20T17:17:57.555Z,43.20
2017-08-20T17:20:24.831Z,43.70
2017-08-20T17:22:51.289Z,43.60
2017-08-20T17:25:17.760Z,43.60
2017-08-20T17:27:44.269Z,44.00
2017-08-20T17:30:10.787Z,44.70
2017-08-20T17:32:37.269Z,45.10
2017-08-20T17:35:03.777Z,45.10
2017-08-20T17:37:30.258Z,44.90
2017-08-20T17:39:56.800Z,45.50
2017-08-20T17:42:23.313Z,45.70
2017-08-20T17:44:50.553Z,45.10
2017-08-20T17:47:17.018Z,45.30
2017-08-20T17:49:43.484Z,45.60
2017-08-20T17:52:09.960Z,46.10
2017-08-20T17:54:36.428Z,45.70
2017-08-20T17:57:02.969Z,46.30
2017-08-20T17:59:29.476Z,46.40
2017-08-20T18:01:55.925Z,46.80
2017-08-20T18:04:22.502Z,46.40
2017-08-20T18:06:49.014Z,46.70
2017-08-20T18:09:15.506Z,47.10
2017-08-20T18:11:42.005Z,46.90
2017-08-20T18:14:08.538Z,46.80
2017-08-20T18:16:35.166Z,46.80
2017-08-20T18:19:01.702Z,47.00
2017-08-20T18:21:28.264Z,47.00
2017-08-20T18:23:54.809Z,46.90
2017-08-20T18:26:22.036Z,47.30
2017-08-20T18:28:48.555Z,47.30
2017-08-20T18:31:15.065Z,47.50
2017-08-20T18:33:41.565Z,47.50
2017-08-20T18:36:07.999Z,47.90
2017-08-20T18:38:35.271Z,49.10
2017-08-20T18:41:01.837Z,48.40
2017-08-20T18:43:28.382Z,48.60
2017-08-20T18:45:54.878Z,48.40
2017-08-20T18:48:21.404Z,48.70
2017-08-20T18:50:47.949Z,48.80
2017-08-20T18:53:14.486Z,48.90
2017-08-20T18:55:41.001Z,49.10
2017-08-20T18:58:07.548Z,49.00
2017-08-20T19:00:34.100Z,48.90
2017-08-20T19:03:00.648Z,48.90
2017-08-20T19:05:27.161Z,49.20
2017-08-20T19:07:53.610Z,50.00
2017-08-20T19:10:20.092Z,49.40
2017-08-20T19:12:46.642Z,49.20
2017-08-20T19:15:13.171Z,49.30
2017-08-20T19:17:39.797Z,49.30
2017-08-20T19:20:06.321Z,49.00
2017-08-20T19:22:32.962Z,48.90
2017-08-20T19:24:59.513Z,49.00
2017-08-20T19:27:25.968Z,49.20
2017-08-20T19:29:52.446Z,49.40
2017-08-20T19:32:19.034Z,49.40
2017-08-20T19:34:45.490Z,49.50
2017-08-20T19:37:12.011Z,49.40
2017-08-20T19:39:38.869Z,49.50
2017-08-20T19:42:05.346Z,49.50
2017-08-20T19:44:31.894Z,49.40
2017-08-20T19:46:58.425Z,49.30
2017-08-20T19:49:26.733Z,49.70
2017-08-20T19:51:53.211Z,49.50
2017-08-20T19:54:19.720Z,50.40
2017-08-20T19:56:46.446Z,51.20
2017-08-20T19:59:12.904Z,52.70
2017-08-20T20:01:39.436Z,53.50
2017-08-20T20:04:05.920Z,54.30
2017-08-20T20:06:32.413Z,55.00
2017-08-20T20:08:58.924Z,54.60
2017-08-20T20:11:25.509Z,54.30
2017-08-20T20:13:52.733Z,54.30
2017-08-20T20:16:19.197Z,54.20
2017-08-20T20:18:45.733Z,53.80
2017-08-20T20:21:12.929Z,53.70
2017-08-20T20:23:39.398Z,53.60
2017-08-20T20:26:05.902Z,54.10
2017-08-20T20:28:32.425Z,54.90
2017-08-20T20:30:58.921Z,55.40
2017-08-20T20:33:25.407Z,55.60
2017-08-20T20:35:51.909Z,56.20
2017-08-20T20:38:18.416Z,56.80
2017-08-20T20:40:45.640Z,57.00
2017-08-20T20:43:12.100Z,56.80
2017-08-20T20:45:38.599Z,56.50
2017-08-20T20:48:05.089Z,56.20
2017-08-20T20:50:31.626Z,56.30
2017-08-20T20:52:58.101Z,56.10
2017-08-20T20:55:24.567Z,55.90
2017-08-20T20:57:51.084Z,56.00
2017-08-20T21:00:18.321Z,56.80
2017-08-20T21:02:44.851Z,56.70
2017-08-20T21:05:11.403Z,56.80
2017-08-20T21:07:37.831Z,56.70
2017-08-20T21:10:04.302Z,56.60
2017-08-20T21:12:30.809Z,57.30
2017-08-20T21:14:57.288Z,59.10
2017-08-20T21:17:23.790Z,60.30
2017-08-20T21:19:50.993Z,60.20
2017-08-20T21:22:17.481Z,60.10
2017-08-20T21:24:44.889Z,61.40
2017-08-20T21:27:11.547Z,61.50
2017-08-20T21:29:38.201Z,62.30
2017-08-20T21:32:05.504Z,63.30
2017-08-20T21:34:31.989Z,63.30
2017-08-20T21:36:59.198Z,63.20
2017-08-20T21:39:25.669Z,62.40
2017-08-20T21:41:52.129Z,61.90
2017-08-20T21:44:18.692Z,61.20
2017-08-20T21:46:45.171Z,61.10
2017-08-20T21:49:11.679Z,61.20
2017-08-20T21:51:38.152Z,60.60
2017-08-20T21:54:04.628Z,59.90
2017-08-20T21:56:31.114Z,59.60
2017-08-20T21:58:58.386Z,61.30
2017-08-20T22:01:25.577Z,61.70
2017-08-20T22:03:52.104Z,61.70
2017-08-20T22:06:18.645Z,62.40
2017-08-20T22:08:45.150Z,63.60
2017-08-20T22:11:11.589Z,63.80
2017-08-20T22:13:38.040Z,64.30
2017-08-20T22:16:04.501Z,64.30
2017-08-20T22:18:31.020Z,63.30
2017-08-20T22:20:57.485Z,62.40
2017-08-20T22:23:24.008Z,61.70
2017-08-20T22:25:50.461Z,61.70
2017-08-20T22:28:17.634Z,63.20
2017-08-20T22:30:44.163Z,62.20
2017-08-20T22:33:11.342Z,63.40
2017-08-20T22:35:37.802Z,63.40
2017-08-20T22:38:04.319Z,62.90
2017-08-20T22:40:30.768Z,62.10
2017-08-20T22:42:57.241Z,61.60
2017-08-20T22:45:23.825Z,61.80
2017-08-20T22:47:50.286Z,61.40
2017-08-20T22:50:17.709Z,61.70
2017-08-20T22:52:44.194Z,62.80
2017-08-20T22:55:14.358Z,62.80
2017-08-20T22:57:40.849Z,62.80
2017-08-20T23:00:08.045Z,62.40
2017-08-20T23:02:34.534Z,62.40
2017-08-20T23:05:01.009Z,62.10
2017-08-20T23:07:27.577Z,62.30
2017-08-20T23:09:54.057Z,61.90
2017-08-20T23:12:20.533Z,61.40
2017-08-20T23:14:46.984Z,61.10
2017-08-20T23:17:13.415Z,61.90
2017-08-20T23:19:40.648Z,62.40
2017-08-20T23:22:07.082Z,62.30
2017-08-20T23:24:33.653Z,62.40
2017-08-20T23:27:00.925Z,63.80
2017-08-20T23:29:27.401Z,63.80
2017-08-20T23:31:53.877Z,64.30
2017-08-20T23:34:21.109Z,64.10
2017-08-20T23:36:47.566Z,64.10
2017-08-20T23:39:14.766Z,63.40
2017-08-20T23:41:41.269Z,63.30
2017-08-20T23:44:07.717Z,63.30
2017-08-20T23:46:34.166Z,63.40
2017-08-20T23:49:00.661Z,63.70
2017-08-20T23:51:27.817Z,64.10
2017-08-20T23:53:54.307Z,64.10
2017-08-20T23:56:20.742Z,66.40
2017-08-20T23:58:47.461Z,66.60
